createdAt,value
2022-11-13T00:00:35.494Z,99.90
2022-11-13T00:03:22.277Z,99.90
2022-11-13T00:06:10.812Z,99.90
2022-11-13T00:08:59.538Z,99.90
2022-11-13T00:11:47.075Z,99.90
2022-11-13T00:14:34.115Z,99.90
2022-11-13T00:17:21.103Z,99.90
2022-11-13T00:20:08.890Z,99.90
2022-11-13T00:22:56.658Z,99.90
2022-11-13T00:25:45.198Z,99.90
2022-11-13T00:28:33.186Z,99.90
2022-11-13T00:31:21.030Z,99.90
2022-11-13T00:34:41.058Z,99.90
2022-11-13T00:37:15.950Z,99.90
2022-11-13T00:40:03.300Z,99.90
2022-11-13T00:42:51.735Z,99.90
2022-11-13T00:45:39.168Z,99.90
2022-11-13T00:48:27.220Z,99.90
2022-11-13T00:51:14.458Z,99.90
2022-11-13T00:54:03.167Z,99.90
2022-11-13T00:56:50.609Z,99.90
2022-11-13T00:59:41.474Z,99.90
2022-11-13T01:02:28.137Z,99.90
2022-11-13T01:05:17.407Z,99.90
2022-11-13T01:08:04.242Z,99.90
2022-11-13T01:10:53.630Z,99.90
2022-11-13T01:13:42.302Z,99.90
2022-11-13T01:16:32.515Z,99.60
2022-11-13T01:19:19.284Z,99.50
2022-11-13T01:22:06.702Z,99.80
2022-11-13T01:24:53.917Z,99.90
2022-11-13T01:27:41.585Z,99.90
2022-11-13T01:30:29.187Z,99.70
2022-11-13T01:33:18.172Z,99.90
2022-11-13T01:36:07.281Z,99.90
2022-11-13T01:38:55.560Z,99.90
2022-11-13T01:41:42.230Z,99.90
2022-11-13T01:44:49.521Z,99.90
2022-11-13T01:47:39.227Z,99.90
2022-11-13T01:50:29.242Z,99.90
2022-11-13T01:53:15.927Z,99.90
2022-11-13T01:56:03.970Z,99.90
2022-11-13T01:58:55.377Z,99.90
2022-11-13T02:01:45.836Z,99.90
2022-11-13T02:04:35.666Z,99.90
2022-11-13T02:07:26.263Z,99.90
2022-11-13T02:10:13.792Z,99.90
2022-11-13T02:13:02.308Z,99.90
2022-11-13T02:15:57.053Z,99.90
2022-11-13T02:18:45.442Z,99.90
2022-11-13T02:21:38.732Z,99.90
2022-11-13T02:24:33.039Z,99.90
2022-11-13T02:27:25.303Z,99.90
2022-11-13T02:30:22.060Z,99.90
2022-11-13T02:33:29.641Z,99.90
2022-11-13T02:36:20.053Z,99.90
2022-11-13T02:39:11.509Z,99.90
2022-11-13T02:42:09.394Z,99.90
2022-11-13T02:44:57.460Z,99.90
2022-11-13T02:47:45.805Z,99.90
2022-11-13T02:50:33.571Z,99.90
2022-11-13T02:53:21.619Z,99.90
2022-11-13T02:56:08.770Z,99.90
2022-11-13T02:58:58.230Z,99.90
2022-11-13T03:01:45.671Z,99.90
2022-11-13T03:05:05.403Z,99.90
2022-11-13T03:07:45.222Z,99.90
2022-11-13T03:10:33.009Z,99.90
2022-11-13T03:13:19.670Z,99.90
2022-11-13T03:16:14.149Z,99.90
2022-11-13T03:19:03.573Z,99.90
2022-11-13T03:21:50.699Z,99.90
2022-11-13T03:24:37.626Z,99.90
2022-11-13T03:27:25.472Z,99.90
2022-11-13T03:30:13.152Z,99.40
2022-11-13T03:33:07.490Z,98.50
2022-11-13T03:35:57.790Z,98.20
2022-11-13T03:38:47.673Z,99.30
2022-11-13T03:41:34.238Z,99.70
2022-11-13T03:44:21.401Z,99.90
2022-11-13T03:47:08.021Z,99.90
2022-11-13T03:49:57.138Z,99.90
2022-11-13T03:52:45.368Z,99.90
2022-11-13T03:55:32.762Z,98.70
2022-11-13T03:58:20.613Z,97.60
2022-11-13T04:01:10.831Z,99.10
2022-11-13T04:03:57.645Z,99.90
2022-11-13T04:06:46.276Z,99.90
2022-11-13T04:09:33.251Z,99.90
2022-11-13T04:12:27.976Z,99.90
2022-11-13T04:15:15.306Z,99.90
2022-11-13T04:18:02.541Z,99.90
2022-11-13T04:20:49.263Z,99.90
2022-11-13T04:23:39.956Z,99.90
2022-11-13T04:26:27.371Z,99.90
2022-11-13T04:29:16.392Z,99.90
2022-11-13T04:32:03.180Z,99.90
2022-11-13T04:34:50.381Z,99.90
2022-11-13T04:37:42.351Z,99.90
2022-11-13T04:40:33.553Z,99.90
2022-11-13T04:43:20.260Z,99.90
2022-11-13T04:46:10.707Z,99.90
2022-11-13T04:48:58.289Z,99.90
2022-11-13T04:51:53.172Z,99.90
2022-11-13T04:54:41.303Z,99.90
2022-11-13T04:57:32.363Z,99.90
2022-11-13T05:00:19.355Z,99.90
2022-11-13T05:03:07.674Z,99.90
2022-11-13T05:05:54.449Z,99.90
2022-11-13T05:08:42.743Z,99.90
2022-11-13T05:11:29.478Z,99.90
2022-11-13T05:14:18.577Z,99.90
2022-11-13T05:17:08.162Z,99.90
2022-11-13T05:19:58.054Z,99.90
2022-11-13T05:22:44.640Z,99.90
2022-11-13T05:25:32.932Z,99.90
2022-11-13T05:28:20.404Z,99.90
2022-11-13T05:31:10.951Z,99.90
2022-11-13T05:34:02.587Z,99.90
2022-11-13T05:36:55.074Z,99.90
2022-11-13T05:39:45.385Z,99.30
2022-11-13T05:42:35.862Z,99.70
2022-11-13T05:45:22.589Z,99.50
2022-11-13T05:48:11.653Z,99.00
2022-11-13T05:51:02.857Z,98.00
2022-11-13T05:53:51.313Z,97.60
2022-11-13T05:56:38.652Z,97.10
2022-11-13T05:59:26.060Z,97.10
2022-11-13T06:02:15.674Z,96.40
2022-11-13T06:05:05.281Z,94.90
2022-11-13T06:07:52.003Z,93.90
2022-11-13T06:10:42.877Z,93.10
2022-11-13T06:13:29.863Z,92.80
2022-11-13T06:16:19.543Z,92.50
2022-11-13T06:19:08.517Z,91.90
2022-11-13T06:21:58.359Z,92.70
2022-11-13T06:24:46.640Z,93.80
2022-11-13T06:27:34.008Z,95.50
2022-11-13T06:30:21.208Z,95.60
2022-11-13T06:33:08.819Z,97.90
2022-11-13T06:35:58.641Z,99.80
2022-11-13T06:38:48.300Z,99.90
2022-11-13T06:41:35.013Z,99.90
2022-11-13T06:44:22.256Z,99.90
2022-11-13T06:47:11.798Z,99.90
2022-11-13T06:49:59.507Z,99.90
2022-11-13T06:52:53.176Z,99.90
2022-11-13T06:55:45.741Z,99.90
2022-11-13T06:58:33.201Z,99.90
2022-11-13T07:01:23.188Z,99.90
2022-11-13T07:04:13.428Z,99.90
2022-11-13T07:07:01.708Z,99.90
2022-11-13T07:09:48.602Z,99.90
2022-11-13T07:12:39.557Z,99.90
2022-11-13T07:15:28.577Z,99.90
2022-11-13T07:18:20.231Z,99.90
2022-11-13T07:21:13.745Z,99.90
2022-11-13T07:24:01.494Z,99.90
2022-11-13T07:26:50.443Z,99.90
2022-11-13T07:29:39.475Z,99.90
2022-11-13T07:32:26.313Z,99.90
2022-11-13T07:35:13.877Z,99.90
2022-11-13T07:38:01.074Z,99.90
2022-11-13T07:40:52.049Z,99.90
2022-11-13T07:43:39.698Z,99.90
2022-11-13T07:46:31.234Z,99.90
2022-11-13T07:49:18.521Z,99.90
2022-11-13T07:52:06.355Z,99.90
2022-11-13T07:54:53.573Z,99.90
2022-11-13T07:57:40.391Z,99.90
2022-11-13T08:00:27.693Z,99.90
2022-11-13T08:03:20.698Z,99.90
2022-11-13T08:06:09.143Z,99.90
2022-11-13T08:08:57.727Z,99.90
2022-11-13T08:11:44.528Z,99.90
2022-11-13T08:14:31.983Z,99.90
2022-11-13T08:17:19.571Z,99.90
2022-11-13T08:20:10.411Z,99.90
2022-11-13T08:22:58.624Z,99.90
2022-11-13T08:25:49.092Z,99.90
2022-11-13T08:28:36.754Z,99.90
2022-11-13T08:31:24.417Z,99.90
2022-11-13T08:34:11.106Z,99.90
2022-11-13T08:37:07.349Z,99.90
2022-11-13T08:39:54.270Z,99.90
2022-11-13T08:42:41.704Z,99.90
2022-11-13T08:45:31.348Z,99.90
2022-11-13T08:48:18.882Z,99.90
2022-11-13T08:51:06.494Z,99.90
2022-11-13T08:53:54.483Z,99.90
2022-11-13T08:56:43.498Z,99.90
2022-11-13T08:59:32.004Z,99.90
2022-11-13T09:02:20.865Z,99.90
2022-11-13T09:05:08.814Z,99.90
2022-11-13T09:08:00.242Z,99.90
2022-11-13T09:10:52.171Z,99.90
2022-11-13T09:13:44.018Z,99.90
2022-11-13T09:16:32.780Z,99.90
2022-11-13T09:19:23.898Z,99.90
2022-11-13T09:22:17.585Z,99.90
2022-11-13T09:25:04.518Z,99.90
2022-11-13T09:27:56.551Z,99.90
2022-11-13T09:30:43.613Z,99.90
2022-11-13T09:33:30.194Z,99.90
2022-11-13T09:36:18.018Z,99.90
2022-11-13T09:39:06.106Z,99.90
2022-11-13T09:41:58.586Z,99.90
2022-11-13T09:44:51.029Z,99.90
2022-11-13T09:50:42.674Z,99.90
2022-11-13T09:53:38.146Z,99.90
2022-11-13T09:56:31.350Z,99.90
2022-11-13T09:59:27.661Z,99.90
2022-11-13T10:02:24.909Z,99.90
2022-11-13T10:05:21.007Z,99.90
2022-11-13T10:08:22.235Z,99.90
2022-11-13T10:11:16.195Z,99.90
2022-11-13T10:14:06.267Z,99.90
2022-11-13T10:16:57.067Z,99.90
2022-11-13T10:19:53.968Z,99.90
2022-11-13T10:22:44.675Z,99.90
2022-11-13T10:25:38.830Z,99.90
2022-11-13T10:28:49.924Z,99.90
2022-11-13T10:31:50.605Z,99.90
2022-11-13T10:34:49.505Z,99.90
2022-11-13T10:37:52.442Z,99.90
2022-11-13T10:40:41.669Z,99.90
2022-11-13T10:43:31.439Z,99.90
2022-11-13T10:46:22.420Z,99.90
2022-11-13T10:49:14.197Z,99.90
2022-11-13T10:52:02.127Z,99.90
2022-11-13T10:54:51.055Z,99.90
2022-11-13T10:57:38.571Z,99.90
2022-11-13T11:00:31.432Z,99.90
2022-11-13T11:03:19.793Z,99.90
2022-11-13T11:06:07.561Z,98.90
2022-11-13T11:09:08.160Z,96.10
2022-11-13T11:12:18.867Z,91.60
2022-11-13T11:15:25.725Z,83.80
2022-11-13T11:18:32.579Z,76.30
2022-11-13T11:21:24.127Z,70.00
2022-11-13T11:24:17.945Z,64.80
2022-11-13T11:27:15.943Z,61.70
2022-11-13T11:30:09.949Z,58.70
2022-11-13T11:33:05.740Z,56.40
2022-11-13T11:36:00.425Z,56.00
2022-11-13T11:38:53.791Z,54.20
2022-11-13T11:41:49.939Z,52.50
2022-11-13T11:44:47.528Z,50.70
2022-11-13T11:47:35.720Z,50.10
2022-11-13T11:50:35.065Z,48.50
2022-11-13T11:53:33.109Z,47.90
2022-11-13T11:56:27.510Z,47.50
2022-11-13T11:59:46.798Z,47.20
2022-11-13T12:03:28.111Z,46.70
2022-11-13T12:06:21.587Z,46.20
2022-11-13T12:09:21.216Z,46.10
2022-11-13T12:12:16.791Z,45.00
2022-11-13T12:15:12.502Z,45.10
2022-11-13T12:18:15.495Z,45.10
2022-11-13T12:21:23.896Z,44.50
2022-11-13T12:24:38.474Z,44.10
2022-11-13T12:27:33.403Z,44.10
2022-11-13T12:30:23.599Z,43.50
2022-11-13T12:33:24.353Z,43.20
2022-11-13T12:36:13.752Z,42.60
2022-11-13T12:39:14.090Z,42.20
2022-11-13T12:42:05.879Z,42.50
2022-11-13T12:45:07.396Z,42.80
2022-11-13T12:48:08.384Z,42.00
2022-11-13T12:50:59.347Z,42.10
2022-11-13T12:53:51.329Z,42.20
2022-11-13T12:56:38.665Z,42.40
2022-11-13T12:59:34.856Z,42.10
2022-11-13T13:02:44.832Z,41.80
2022-11-13T13:05:56.998Z,41.80
2022-11-13T13:08:56.648Z,41.60
2022-11-13T13:11:51.302Z,41.30
2022-11-13T13:15:12.246Z,41.20
2022-11-13T13:18:04.996Z,41.30
2022-11-13T13:21:02.953Z,41.40
2022-11-13T13:23:53.591Z,41.10
2022-11-13T13:26:47.863Z,40.90
2022-11-13T13:29:34.852Z,40.50
2022-11-13T13:32:27.079Z,40.20
2022-11-13T13:35:18.192Z,40.10
2022-11-13T13:38:18.264Z,40.10
2022-11-13T13:41:22.305Z,41.10
2022-11-13T13:44:26.422Z,42.30
2022-11-13T13:47:22.414Z,44.00
2022-11-13T13:50:15.593Z,44.80
2022-11-13T13:53:04.043Z,45.90
2022-11-13T13:55:53.863Z,47.30
2022-11-13T13:58:42.931Z,48.20
2022-11-13T14:01:32.219Z,48.70
2022-11-13T14:04:20.651Z,49.80
2022-11-13T14:07:21.856Z,50.50
2022-11-13T14:10:15.692Z,51.00
2022-11-13T14:13:05.359Z,51.20
2022-11-13T14:16:01.999Z,51.60
2022-11-13T14:18:49.329Z,52.00
2022-11-13T14:21:35.828Z,52.30
2022-11-13T14:24:25.514Z,52.90
2022-11-13T14:27:19.965Z,53.30
2022-11-13T14:30:21.303Z,54.00
2022-11-13T14:33:12.050Z,54.60
2022-11-13T14:36:00.847Z,54.90
2022-11-13T14:38:51.970Z,54.60
2022-11-13T14:41:47.652Z,54.80
2022-11-13T14:44:36.153Z,55.20
2022-11-13T14:47:28.424Z,55.80
2022-11-13T14:50:26.440Z,56.20
2022-11-13T14:53:13.822Z,56.40
2022-11-13T14:56:02.717Z,56.90
2022-11-13T14:58:50.342Z,57.40
2022-11-13T15:01:39.464Z,57.70
2022-11-13T15:04:54.613Z,57.90
2022-11-13T15:07:47.032Z,58.40
2022-11-13T15:10:37.297Z,59.10
2022-11-13T15:13:24.613Z,59.50
2022-11-13T15:16:15.797Z,60.00
2022-11-13T15:19:05.260Z,60.30
2022-11-13T15:22:25.334Z,60.80
2022-11-13T15:25:01.421Z,61.10
2022-11-13T15:27:49.031Z,61.50
2022-11-13T15:30:36.112Z,62.40
2022-11-13T15:33:23.586Z,63.70
2022-11-13T15:36:17.103Z,64.20
2022-11-13T15:39:06.651Z,64.90
2022-11-13T15:41:57.994Z,65.20
2022-11-13T15:44:46.359Z,65.90
2022-11-13T15:47:35.541Z,66.60
2022-11-13T15:50:25.594Z,67.10
2022-11-13T15:53:17.785Z,67.70
2022-11-13T15:56:06.248Z,68.30
2022-11-13T15:58:54.319Z,68.50
2022-11-13T16:01:44.255Z,69.20
2022-11-13T16:04:54.525Z,69.50
2022-11-13T16:07:42.201Z,70.00
2022-11-13T16:10:34.352Z,71.00
2022-11-13T16:13:21.440Z,71.90
2022-11-13T16:16:15.168Z,73.60
2022-11-13T16:19:04.224Z,74.50
2022-11-13T16:21:51.163Z,75.30
2022-11-13T16:24:39.207Z,76.50
2022-11-13T16:27:29.475Z,77.20
2022-11-13T16:30:20.400Z,78.10
2022-11-13T16:33:10.529Z,78.80
2022-11-13T16:35:57.695Z,79.10
2022-11-13T16:38:46.549Z,80.30
2022-11-13T16:44:36.034Z,80.10
2022-11-13T16:47:24.197Z,80.50
2022-11-13T16:50:17.031Z,81.10
2022-11-13T16:53:04.818Z,80.50
2022-11-13T16:55:53.128Z,80.60
2022-11-13T16:58:41.419Z,80.10
2022-11-13T17:01:29.064Z,80.60
2022-11-13T17:04:16.208Z,80.70
2022-11-13T17:07:06.593Z,81.10
2022-11-13T17:10:10.330Z,81.50
2022-11-13T17:13:00.251Z,80.40
2022-11-13T17:15:47.045Z,80.70
2022-11-13T17:18:35.279Z,80.50
2022-11-13T17:21:24.157Z,80.80
2022-11-13T17:27:13.329Z,80.10
2022-11-13T17:30:03.327Z,79.50
2022-11-13T17:32:50.524Z,80.20
2022-11-13T17:35:37.981Z,79.60
2022-11-13T17:38:25.524Z,79.80
2022-11-13T17:41:16.048Z,80.10
2022-11-13T17:44:02.608Z,80.30
2022-11-13T17:46:49.605Z,80.30
2022-11-13T17:49:36.839Z,80.00
2022-11-13T17:52:23.591Z,80.00
2022-11-13T17:55:15.499Z,79.80
2022-11-13T17:58:05.865Z,80.30
2022-11-13T18:00:53.762Z,80.60
2022-11-13T18:03:41.300Z,80.40
2022-11-13T18:06:29.188Z,80.10
2022-11-13T18:09:16.111Z,80.70
2022-11-13T18:12:05.766Z,79.90
2022-11-13T18:14:55.939Z,80.30
2022-11-13T18:17:45.518Z,80.60
2022-11-13T18:20:34.303Z,81.10
2022-11-13T18:23:21.763Z,81.80
2022-11-13T18:26:10.634Z,82.20
2022-11-13T18:28:57.707Z,83.20
2022-11-13T18:31:48.139Z,84.60
2022-11-13T18:34:38.075Z,85.30
2022-11-13T18:37:27.959Z,85.80
2022-11-13T18:40:18.512Z,86.50
2022-11-13T18:43:07.766Z,86.70
2022-11-13T18:45:59.025Z,87.70
2022-11-13T18:48:48.774Z,88.00
2022-11-13T18:51:37.767Z,87.70
2022-11-13T18:54:24.731Z,88.30
2022-11-13T18:57:11.528Z,88.80
2022-11-13T18:59:58.797Z,88.60
2022-11-13T19:02:46.199Z,88.90
2022-11-13T19:05:34.792Z,88.90
2022-11-13T19:08:21.757Z,89.10
2022-11-13T19:11:11.886Z,88.90
2022-11-13T19:14:01.938Z,89.30
2022-11-13T19:16:49.451Z,89.60
2022-11-13T19:19:36.469Z,88.30
2022-11-13T19:22:24.916Z,88.80
2022-11-13T19:25:12.189Z,89.80
2022-11-13T19:27:59.576Z,90.00
2022-11-13T19:30:47.519Z,90.00
2022-11-13T19:33:37.126Z,90.00
2022-11-13T19:36:25.706Z,90.40
2022-11-13T19:39:16.876Z,90.40
2022-11-13T19:42:03.341Z,90.60
2022-11-13T19:44:58.374Z,90.80
2022-11-13T19:47:45.264Z,91.20
2022-11-13T19:50:32.833Z,91.30
2022-11-13T19:53:21.552Z,91.40
2022-11-13T19:56:12.784Z,91.50
2022-11-13T19:59:01.558Z,91.60
2022-11-13T20:01:49.268Z,91.60
2022-11-13T20:04:36.139Z,91.90
2022-11-13T20:07:23.515Z,92.20
2022-11-13T20:10:11.714Z,92.30
2022-11-13T20:12:59.530Z,92.20
2022-11-13T20:15:56.678Z,92.30
2022-11-13T20:18:44.942Z,92.40
2022-11-13T20:21:34.607Z,92.30
2022-11-13T20:24:24.189Z,92.60
2022-11-13T20:27:11.909Z,92.70
2022-11-13T20:29:59.697Z,93.20
2022-11-13T20:32:47.508Z,93.30
2022-11-13T20:35:35.121Z,93.70
2022-11-13T20:38:26.911Z,93.80
2022-11-13T20:41:16.960Z,93.60
2022-11-13T20:44:03.405Z,93.70
2022-11-13T20:46:51.526Z,94.10
2022-11-13T20:49:38.399Z,94.20
2022-11-13T20:52:25.478Z,94.40
2022-11-13T20:55:13.096Z,94.50
2022-11-13T20:58:00.957Z,94.60
2022-11-13T21:00:47.918Z,94.50
2022-11-13T21:03:41.399Z,94.80
2022-11-13T21:06:29.242Z,95.00
2022-11-13T21:09:15.798Z,95.40
2022-11-13T21:12:03.066Z,95.20
2022-11-13T21:14:51.242Z,95.10
2022-11-13T21:17:38.407Z,94.80
2022-11-13T21:20:28.146Z,94.60
2022-11-13T21:23:15.302Z,94.50
2022-11-13T21:26:03.094Z,94.50
2022-11-13T21:28:52.071Z,94.30
2022-11-13T21:31:38.765Z,94.30
2022-11-13T21:34:25.331Z,94.50
2022-11-13T21:37:14.525Z,94.40
2022-11-13T21:40:01.958Z,94.80
2022-11-13T21:42:48.710Z,94.80
2022-11-13T21:45:36.008Z,94.40
2022-11-13T21:48:22.581Z,94.60
2022-11-13T21:51:13.083Z,94.60
2022-11-13T21:54:01.962Z,94.60
2022-11-13T21:56:49.793Z,94.90
2022-11-13T21:59:36.306Z,94.90
2022-11-13T22:02:23.762Z,95.00
2022-11-13T22:05:10.787Z,95.00
2022-11-13T22:07:57.934Z,95.10
2022-11-13T22:10:45.954Z,95.20
2022-11-13T22:13:33.011Z,95.30
2022-11-13T22:16:20.366Z,95.40
2022-11-13T22:19:13.118Z,95.30
2022-11-13T22:21:59.833Z,95.60
2022-11-13T22:24:46.656Z,95.40
2022-11-13T22:27:36.130Z,95.50
2022-11-13T22:30:26.349Z,95.30
2022-11-13T22:33:12.953Z,95.60
2022-11-13T22:36:05.330Z,95.80
2022-11-13T22:38:51.869Z,95.90
2022-11-13T22:41:38.848Z,96.00
2022-11-13T22:44:45.432Z,96.20
2022-11-13T22:47:37.956Z,95.90
2022-11-13T22:50:24.921Z,96.20
2022-11-13T22:53:14.687Z,96.20
2022-11-13T22:56:05.614Z,96.50
2022-11-13T22:58:54.208Z,96.70
2022-11-13T23:01:43.818Z,96.90
2022-11-13T23:04:33.333Z,96.90
2022-11-13T23:07:20.010Z,96.90
2022-11-13T23:10:08.543Z,96.80
2022-11-13T23:12:55.352Z,97.10
2022-11-13T23:15:42.214Z,97.40
2022-11-13T23:18:36.341Z,97.30
2022-11-13T23:21:25.515Z,97.30
2022-11-13T23:24:16.044Z,97.60
2022-11-13T23:27:04.573Z,97.50
2022-11-13T23:29:53.634Z,97.40
2022-11-13T23:32:40.877Z,97.70
2022-11-13T23:35:29.394Z,97.60
2022-11-13T23:38:15.989Z,97.80
2022-11-13T23:41:03.465Z,97.80
2022-11-13T23:44:08.230Z,97.80
2022-11-13T23:46:56.087Z,97.80
2022-11-13T23:49:50.591Z,97.90
2022-11-13T23:52:46.868Z,98.00
2022-11-13T23:55:36.215Z,98.50
2022-11-13T23:58:22.790Z,98.80
